sensor_id;sensor_type;location;lat;lon;timestamp;pressure;altitude;pressure_sealevel;temperature;humidity
25238;BME280;13185;50.872;5.306;2022-12-18T00:01:42;102454.75;;;-7.32;94.14
25238;BME280;13185;50.872;5.306;2022-12-18T00:04:17;102451.25;;;-7.32;94.16
25238;BME280;13185;50.872;5.306;2022-12-18T00:06:45;102460.81;;;-7.33;94.07
25238;BME280;13185;50.872;5.306;2022-12-18T00:09:10;102454.63;;;-7.36;93.90
25238;BME280;13185;50.872;5.306;2022-12-18T00:11:36;102457.19;;;-7.38;93.96
25238;BME280;13185;50.872;5.306;2022-12-18T00:14:01;102455.28;;;-7.42;93.63
25238;BME280;13185;50.872;5.306;2022-12-18T00:16:28;102457.78;;;-7.45;93.38
25238;BME280;13185;50.872;5.306;2022-12-18T00:18:56;102454.03;;;-7.53;93.17
25238;BME280;13185;50.872;5.306;2022-12-18T00:21:22;102453.94;;;-7.56;93.05
25238;BME280;13185;50.872;5.306;2022-12-18T00:23:49;102449.50;;;-7.59;93.12
25238;BME280;13185;50.872;5.306;2022-12-18T00:26:18;102459.03;;;-7.59;93.16
25238;BME280;13185;50.872;5.306;2022-12-18T00:28:45;102461.66;;;-7.59;93.15
25238;BME280;13185;50.872;5.306;2022-12-18T00:31:13;102458.09;;;-7.61;93.02
25238;BME280;13185;50.872;5.306;2022-12-18T00:33:39;102466.69;;;-7.64;92.99
25238;BME280;13185;50.872;5.306;2022-12-18T00:36:13;102461.44;;;-7.65;92.73
25238;BME280;13185;50.872;5.306;2022-12-18T00:38:39;102459.56;;;-7.69;92.63
25238;BME280;13185;50.872;5.306;2022-12-18T00:41:06;102454.31;;;-7.71;92.65
25238;BME280;13185;50.872;5.306;2022-12-18T00:43:34;102449.88;;;-7.72;92.54
25238;BME280;13185;50.872;5.306;2022-12-18T00:46:00;102435.75;;;-7.80;92.33
25238;BME280;13185;50.872;5.306;2022-12-18T00:48:25;102433.09;;;-7.81;92.22
25238;BME280;13185;50.872;5.306;2022-12-18T00:50:51;102426.84;;;-7.85;91.90
25238;BME280;13185;50.872;5.306;2022-12-18T00:53:17;102429.41;;;-7.87;92.13
25238;BME280;13185;50.872;5.306;2022-12-18T00:55:43;102433.75;;;-7.87;92.06
25238;BME280;13185;50.872;5.306;2022-12-18T00:58:11;102438.72;;;-7.93;91.93
25238;BME280;13185;50.872;5.306;2022-12-18T01:00:37;102437.72;;;-7.97;91.79
25238;BME280;13185;50.872;5.306;2022-12-18T01:03:04;102442.09;;;-7.96;91.98
25238;BME280;13185;50.872;5.306;2022-12-18T01:05:30;102442.09;;;-7.96;91.84
25238;BME280;13185;50.872;5.306;2022-12-18T01:10:21;102432.38;;;-8.01;91.77
25238;BME280;13185;50.872;5.306;2022-12-18T01:12:46;102420.09;;;-8.04;91.80
25238;BME280;13185;50.872;5.306;2022-12-18T01:15:13;102411.41;;;-8.04;91.76
25238;BME280;13185;50.872;5.306;2022-12-18T01:17:39;102413.09;;;-8.06;91.55
25238;BME280;13185;50.872;5.306;2022-12-18T01:20:05;102412.97;;;-8.09;91.62
25238;BME280;13185;50.872;5.306;2022-12-18T01:22:33;102418.88;;;-8.14;91.26
25238;BME280;13185;50.872;5.306;2022-12-18T01:24:59;102424.03;;;-8.15;91.51
25238;BME280;13185;50.872;5.306;2022-12-18T01:27:24;102432.72;;;-8.15;91.67
25238;BME280;13185;50.872;5.306;2022-12-18T01:29:50;102435.28;;;-8.16;91.68
25238;BME280;13185;50.872;5.306;2022-12-18T01:32:18;102436.13;;;-8.17;91.65
25238;BME280;13185;50.872;5.306;2022-12-18T01:34:44;102435.25;;;-8.18;91.63
25238;BME280;13185;50.872;5.306;2022-12-18T01:37:09;102436.97;;;-8.18;91.76
25238;BME280;13185;50.872;5.306;2022-12-18T01:39:35;102429.09;;;-8.20;91.74
25238;BME280;13185;50.872;5.306;2022-12-18T01:42:12;102422.97;;;-8.22;91.39
25238;BME280;13185;50.872;5.306;2022-12-18T01:52:56;102417.34;;;-8.32;91.47
25238;BME280;13185;50.872;5.306;2022-12-18T01:55:26;102418.13;;;-8.35;91.26
25238;BME280;13185;50.872;5.306;2022-12-18T01:57:55;102420.75;;;-8.35;91.11
25238;BME280;13185;50.872;5.306;2022-12-18T02:00:22;102420.63;;;-8.38;91.26
25238;BME280;13185;50.872;5.306;2022-12-18T02:02:50;102425.69;;;-8.42;90.92
25238;BME280;13185;50.872;5.306;2022-12-18T02:13:40;102414.88;;;-8.53;90.93
25238;BME280;13185;50.872;5.306;2022-12-18T02:18:46;102404.38;;;-8.55;90.99
25238;BME280;13185;50.872;5.306;2022-12-18T02:24:29;102412.13;;;-8.56;91.26
25238;BME280;13185;50.872;5.306;2022-12-18T02:26:59;102419.88;;;-8.58;91.18
25238;BME280;13185;50.872;5.306;2022-12-18T02:31:57;102408.53;;;-8.60;91.13
25238;BME280;13185;50.872;5.306;2022-12-18T02:34:30;102394.53;;;-8.63;91.04
25238;BME280;13185;50.872;5.306;2022-12-18T02:36:58;102400.50;;;-8.66;91.03
25238;BME280;13185;50.872;5.306;2022-12-18T02:39:27;102392.69;;;-8.66;91.10
25238;BME280;13185;50.872;5.306;2022-12-18T02:42:02;102388.31;;;-8.67;91.07
25238;BME280;13185;50.872;5.306;2022-12-18T02:44:34;102386.56;;;-8.68;91.00
25238;BME280;13185;50.872;5.306;2022-12-18T02:47:01;102383.13;;;-8.67;91.17
25238;BME280;13185;50.872;5.306;2022-12-18T02:49:58;102376.19;;;-8.66;90.92
25238;BME280;13185;50.872;5.306;2022-12-18T02:53:10;102364.03;;;-8.67;90.88
25238;BME280;13185;50.872;5.306;2022-12-18T03:04:06;102358.88;;;-8.66;91.11
25238;BME280;13185;50.872;5.306;2022-12-18T03:06:39;102355.34;;;-8.68;91.29
25238;BME280;13185;50.872;5.306;2022-12-18T03:09:09;102354.47;;;-8.68;91.33
25238;BME280;13185;50.872;5.306;2022-12-18T03:11:40;102357.84;;;-8.71;91.14
25238;BME280;13185;50.872;5.306;2022-12-18T03:14:28;102355.97;;;-8.75;91.29
25238;BME280;13185;50.872;5.306;2022-12-18T03:17:00;102355.88;;;-8.77;91.38
25238;BME280;13185;50.872;5.306;2022-12-18T03:19:29;102349.72;;;-8.79;91.58
25238;BME280;13185;50.872;5.306;2022-12-18T03:22:01;102358.38;;;-8.80;91.49
25238;BME280;13185;50.872;5.306;2022-12-18T03:24:38;102368.00;;;-8.77;91.98
25238;BME280;13185;50.872;5.306;2022-12-18T03:27:10;102359.44;;;-8.75;92.22
25238;BME280;13185;50.872;5.306;2022-12-18T03:29:43;102357.88;;;-8.69;92.51
25238;BME280;13185;50.872;5.306;2022-12-18T03:32:25;102354.47;;;-8.68;92.78
25238;BME280;13185;50.872;5.306;2022-12-18T03:34:55;102357.88;;;-8.69;93.12
25238;BME280;13185;50.872;5.306;2022-12-18T03:37:24;102354.56;;;-8.65;93.09
25238;BME280;13185;50.872;5.306;2022-12-18T03:39:51;102351.06;;;-8.66;93.17
25238;BME280;13185;50.872;5.306;2022-12-18T03:42:48;102352.84;;;-8.65;93.37
25238;BME280;13185;50.872;5.306;2022-12-18T03:50:54;102343.16;;;-8.69;93.12
25238;BME280;13185;50.872;5.306;2022-12-18T03:56:16;102347.31;;;-8.74;92.96
25238;BME280;13185;50.872;5.306;2022-12-18T03:58:43;102337.66;;;-8.77;92.55
25238;BME280;13185;50.872;5.306;2022-12-18T04:01:17;102346.25;;;-8.79;92.61
25238;BME280;13185;50.872;5.306;2022-12-18T04:03:47;102342.72;;;-8.81;92.69
25238;BME280;13185;50.872;5.306;2022-12-18T04:06:16;102344.38;;;-8.83;92.38
25238;BME280;13185;50.872;5.306;2022-12-18T04:08:43;102340.84;;;-8.85;92.42
25238;BME280;13185;50.872;5.306;2022-12-18T04:11:15;102341.72;;;-8.85;92.44
25238;BME280;13185;50.872;5.306;2022-12-18T04:13:42;102341.78;;;-8.83;92.31
25238;BME280;13185;50.872;5.306;2022-12-18T04:16:15;102339.03;;;-8.86;92.45
25238;BME280;13185;50.872;5.306;2022-12-18T04:18:43;102340.75;;;-8.87;92.33
25238;BME280;13185;50.872;5.306;2022-12-18T04:21:09;102341.47;;;-8.91;92.02
25238;BME280;13185;50.872;5.306;2022-12-18T04:23:36;102339.75;;;-8.90;92.30
25238;BME280;13185;50.872;5.306;2022-12-18T04:26:01;102335.44;;;-8.90;92.39
25238;BME280;13185;50.872;5.306;2022-12-18T04:28:50;102330.97;;;-8.94;92.31
25238;BME280;13185;50.872;5.306;2022-12-18T04:31:16;102337.94;;;-8.93;92.47
25238;BME280;13185;50.872;5.306;2022-12-18T04:33:42;102348.34;;;-8.93;92.43
25238;BME280;13185;50.872;5.306;2022-12-18T04:36:08;102351.00;;;-8.91;92.62
25238;BME280;13185;50.872;5.306;2022-12-18T04:38:34;102340.69;;;-8.88;92.77
25238;BME280;13185;50.872;5.306;2022-12-18T04:41:05;102335.56;;;-8.87;92.68
25238;BME280;13185;50.872;5.306;2022-12-18T04:43:32;102331.25;;;-8.86;92.71
25238;BME280;13185;50.872;5.306;2022-12-18T04:46:03;102331.19;;;-8.88;92.42
25238;BME280;13185;50.872;5.306;2022-12-18T04:48:28;102327.69;;;-8.88;92.81
25238;BME280;13185;50.872;5.306;2022-12-18T04:50:54;102330.19;;;-8.91;92.57
25238;BME280;13185;50.872;5.306;2022-12-18T04:53:19;102334.56;;;-8.90;92.89
25238;BME280;13185;50.872;5.306;2022-12-18T04:55:45;102323.22;;;-8.92;92.88
25238;BME280;13185;50.872;5.306;2022-12-18T04:58:10;102326.66;;;-8.93;92.84
25238;BME280;13185;50.872;5.306;2022-12-18T05:00:36;102336.19;;;-8.94;92.79
25238;BME280;13185;50.872;5.306;2022-12-18T05:03:01;102336.91;;;-8.96;92.88
25238;BME280;13185;50.872;5.306;2022-12-18T05:05:27;102336.03;;;-8.97;92.87
25238;BME280;13185;50.872;5.306;2022-12-18T05:07:53;102345.63;;;-8.96;92.77
25238;BME280;13185;50.872;5.306;2022-12-18T05:10:18;102356.03;;;-8.96;92.76
25238;BME280;13185;50.872;5.306;2022-12-18T05:12:44;102342.94;;;-8.97;92.76
25238;BME280;13185;50.872;5.306;2022-12-18T05:15:29;102355.00;;;-8.99;92.37
25238;BME280;13185;50.872;5.306;2022-12-18T05:17:55;102359.25;;;-9.02;92.29
25238;BME280;13185;50.872;5.306;2022-12-18T05:20:21;102353.13;;;-9.04;92.20
25238;BME280;13185;50.872;5.306;2022-12-18T05:22:47;102347.88;;;-9.05;92.17
25238;BME280;13185;50.872;5.306;2022-12-18T05:25:12;102342.59;;;-9.07;92.17
25238;BME280;13185;50.872;5.306;2022-12-18T05:27:38;102346.09;;;-9.06;92.04
25238;BME280;13185;50.872;5.306;2022-12-18T05:30:04;102345.97;;;-9.09;92.18
25238;BME280;13185;50.872;5.306;2022-12-18T05:32:29;102351.31;;;-9.06;92.14
25238;BME280;13185;50.872;5.306;2022-12-18T05:34:55;102352.03;;;-9.09;92.23
25238;BME280;13185;50.872;5.306;2022-12-18T05:37:22;102365.88;;;-9.10;92.16
25238;BME280;13185;50.872;5.306;2022-12-18T05:39:48;102371.06;;;-9.10;92.01
25238;BME280;13185;50.872;5.306;2022-12-18T05:42:13;102358.03;;;-9.11;91.85
25238;BME280;13185;50.872;5.306;2022-12-18T05:44:39;102347.63;;;-9.11;91.89
25238;BME280;13185;50.872;5.306;2022-12-18T05:47:04;102347.56;;;-9.13;91.90
25238;BME280;13185;50.872;5.306;2022-12-18T05:49:30;102341.50;;;-9.13;91.87
25238;BME280;13185;50.872;5.306;2022-12-18T05:51:55;102333.63;;;-9.15;91.64
25238;BME280;13185;50.872;5.306;2022-12-18T05:54:21;102343.88;;;-9.18;91.91
25238;BME280;13185;50.872;5.306;2022-12-18T05:56:47;102355.16;;;-9.17;91.99
25238;BME280;13185;50.872;5.306;2022-12-18T05:59:12;102351.63;;;-9.19;92.03
25238;BME280;13185;50.872;5.306;2022-12-18T06:01:38;102342.06;;;-9.20;91.58
25238;BME280;13185;50.872;5.306;2022-12-18T06:04:03;102348.91;;;-9.22;91.71
25238;BME280;13185;50.872;5.306;2022-12-18T06:06:29;102355.78;;;-9.24;91.68
25238;BME280;13185;50.872;5.306;2022-12-18T06:08:55;102344.44;;;-9.26;91.62
25238;BME280;13185;50.872;5.306;2022-12-18T06:11:23;102343.56;;;-9.27;91.70
25238;BME280;13185;50.872;5.306;2022-12-18T06:13:50;102344.44;;;-9.26;91.62
25238;BME280;13185;50.872;5.306;2022-12-18T06:16:16;102344.28;;;-9.29;91.55
25238;BME280;13185;50.872;5.306;2022-12-18T06:18:42;102340.81;;;-9.30;91.55
25238;BME280;13185;50.872;5.306;2022-12-18T06:21:07;102341.69;;;-9.29;91.60
25238;BME280;13185;50.872;5.306;2022-12-18T06:23:33;102345.91;;;-9.33;91.47
25238;BME280;13185;50.872;5.306;2022-12-18T06:25:58;102348.50;;;-9.33;91.50
25238;BME280;13185;50.872;5.306;2022-12-18T06:28:28;102346.66;;;-9.36;91.42
25238;BME280;13185;50.872;5.306;2022-12-18T06:30:53;102339.75;;;-9.35;91.39
25238;BME280;13185;50.872;5.306;2022-12-18T06:33:18;102335.34;;;-9.38;91.40
25238;BME280;13185;50.872;5.306;2022-12-18T06:35:44;102341.34;;;-9.39;91.17
25238;BME280;13185;50.872;5.306;2022-12-18T06:38:09;102342.31;;;-9.37;91.25
25238;BME280;13185;50.872;5.306;2022-12-18T06:40:37;102332.75;;;-9.38;91.22
25238;BME280;13185;50.872;5.306;2022-12-18T06:43:03;102345.63;;;-9.39;91.25
25238;BME280;13185;50.872;5.306;2022-12-18T06:45:28;102350.84;;;-9.39;90.99
25238;BME280;13185;50.872;5.306;2022-12-18T06:47:54;102348.25;;;-9.39;91.11
25238;BME280;13185;50.872;5.306;2022-12-18T06:50:19;102353.38;;;-9.41;91.36
25238;BME280;13185;50.872;5.306;2022-12-18T06:52:45;102339.44;;;-9.43;91.25
25238;BME280;13185;50.872;5.306;2022-12-18T06:55:11;102338.56;;;-9.43;90.89
25238;BME280;13185;50.872;5.306;2022-12-18T06:57:37;102335.91;;;-9.45;91.04
25238;BME280;13185;50.872;5.306;2022-12-18T07:00:05;102334.13;;;-9.46;91.05
25238;BME280;13185;50.872;5.306;2022-12-18T07:02:31;102335.84;;;-9.46;91.10
25238;BME280;13185;50.872;5.306;2022-12-18T07:04:56;102328.94;;;-9.46;91.43
25238;BME280;13185;50.872;5.306;2022-12-18T07:07:21;102313.41;;;-9.44;91.52
25238;BME280;13185;50.872;5.306;2022-12-18T07:09:49;102315.19;;;-9.43;91.77
25238;BME280;13185;50.872;5.306;2022-12-18T07:12:14;102308.28;;;-9.43;91.72
25238;BME280;13185;50.872;5.306;2022-12-18T07:14:40;102306.63;;;-9.41;91.91
25238;BME280;13185;50.872;5.306;2022-12-18T07:17:05;102298.03;;;-9.38;92.06
25238;BME280;13185;50.872;5.306;2022-12-18T07:19:31;102296.28;;;-9.39;92.01
25238;BME280;13185;50.872;5.306;2022-12-18T07:21:56;102298.13;;;-9.37;92.15
25238;BME280;13185;50.872;5.306;2022-12-18T07:24:22;102299.13;;;-9.33;92.63
25238;BME280;13185;50.872;5.306;2022-12-18T07:26:48;102291.50;;;-9.28;92.92
25238;BME280;13185;50.872;5.306;2022-12-18T07:29:13;102293.34;;;-9.26;92.98
25238;BME280;13185;50.872;5.306;2022-12-18T07:31:39;102283.06;;;-9.23;93.48
25238;BME280;13185;50.872;5.306;2022-12-18T07:34:04;102289.22;;;-9.21;93.53
25238;BME280;13185;50.872;5.306;2022-12-18T07:36:30;102289.31;;;-9.18;93.58
25238;BME280;13185;50.872;5.306;2022-12-18T07:38:55;102274.75;;;-9.14;93.42
25238;BME280;13185;50.872;5.306;2022-12-18T07:41:21;102269.56;;;-9.14;93.58
25238;BME280;13185;50.872;5.306;2022-12-18T07:43:47;102267.88;;;-9.12;93.67
25238;BME280;13185;50.872;5.306;2022-12-18T07:46:14;102260.19;;;-9.09;93.89
25238;BME280;13185;50.872;5.306;2022-12-18T07:48:43;102259.50;;;-9.05;94.17
25238;BME280;13185;50.872;5.306;2022-12-18T07:51:08;102257.00;;;-9.02;94.30
25238;BME280;13185;50.872;5.306;2022-12-18T07:53:35;102256.22;;;-8.99;94.47
25238;BME280;13185;50.872;5.306;2022-12-18T07:56:03;102253.72;;;-8.96;94.60
25238;BME280;13185;50.872;5.306;2022-12-18T07:58:30;102248.72;;;-8.92;94.95
25238;BME280;13185;50.872;5.306;2022-12-18T08:01:09;102256.72;;;-8.86;95.47
25238;BME280;13185;50.872;5.306;2022-12-18T08:03:36;102256.97;;;-8.80;95.71
25238;BME280;13185;50.872;5.306;2022-12-18T08:06:04;102256.16;;;-8.77;95.83
25238;BME280;13185;50.872;5.306;2022-12-18T08:08:31;102249.44;;;-8.72;96.04
25238;BME280;13185;50.872;5.306;2022-12-18T08:10:57;102254.00;;;-8.65;96.30
25238;BME280;13185;50.872;5.306;2022-12-18T08:13:22;102256.75;;;-8.62;96.28
25238;BME280;13185;50.872;5.306;2022-12-18T08:16:06;102260.38;;;-8.57;96.56
25238;BME280;13185;50.872;5.306;2022-12-18T08:18:33;102251.72;;;-8.56;96.62
25238;BME280;13185;50.872;5.306;2022-12-18T08:21:16;102258.00;;;-8.51;96.76
25238;BME280;13185;50.872;5.306;2022-12-18T08:23:43;102261.59;;;-8.47;96.93
25238;BME280;13185;50.872;5.306;2022-12-18T08:26:11;102255.72;;;-8.41;97.06
25238;BME280;13185;50.872;5.306;2022-12-18T08:28:40;102253.22;;;-8.38;97.09
25238;BME280;13185;50.872;5.306;2022-12-18T08:31:07;102255.13;;;-8.33;97.19
25238;BME280;13185;50.872;5.306;2022-12-18T08:33:33;102263.97;;;-8.28;97.39
25238;BME280;13185;50.872;5.306;2022-12-18T08:36:00;102256.38;;;-8.22;97.74
25238;BME280;13185;50.872;5.306;2022-12-18T08:38:26;102259.16;;;-8.16;97.82
25238;BME280;13185;50.872;5.306;2022-12-18T08:41:03;102240.22;;;-8.11;97.89
25238;BME280;13185;50.872;5.306;2022-12-18T08:43:29;102231.72;;;-8.06;97.75
25238;BME280;13185;50.872;5.306;2022-12-18T08:46:18;102224.13;;;-8.00;97.99
25238;BME280;13185;50.872;5.306;2022-12-18T08:48:44;102226.06;;;-7.93;98.21
25238;BME280;13185;50.872;5.306;2022-12-18T08:51:10;102224.56;;;-7.86;98.21
25238;BME280;13185;50.872;5.306;2022-12-18T08:53:36;102236.13;;;-7.78;98.77
25238;BME280;13185;50.872;5.306;2022-12-18T08:56:03;102229.44;;;-7.70;99.29
25238;BME280;13185;50.872;5.306;2022-12-18T08:58:29;102231.41;;;-7.61;99.17
25238;BME280;13185;50.872;5.306;2022-12-18T09:01:02;102232.53;;;-7.53;99.42
25238;BME280;13185;50.872;5.306;2022-12-18T09:03:28;102234.50;;;-7.46;99.64
25238;BME280;13185;50.872;5.306;2022-12-18T09:05:54;102226.97;;;-7.37;99.96
25238;BME280;13185;50.872;5.306;2022-12-18T09:08:20;102222.03;;;-7.28;100.00
25238;BME280;13185;50.872;5.306;2022-12-18T09:10:46;102222.19;;;-7.21;100.00
25238;BME280;13185;50.872;5.306;2022-12-18T09:13:13;102214.66;;;-7.12;100.00
25238;BME280;13185;50.872;5.306;2022-12-18T09:15:48;102209.63;;;-7.06;100.00
25238;BME280;13185;50.872;5.306;2022-12-18T09:18:19;102202.84;;;-7.00;100.00
25238;BME280;13185;50.872;5.306;2022-12-18T09:20:45;102206.50;;;-6.93;100.00
25238;BME280;13185;50.872;5.306;2022-12-18T09:23:12;102208.41;;;-6.87;100.00
25238;BME280;13185;50.872;5.306;2022-12-18T09:25:38;102209.44;;;-6.81;100.00
25238;BME280;13185;50.872;5.306;2022-12-18T09:28:09;102208.75;;;-6.75;100.00
25238;BME280;13185;50.872;5.306;2022-12-18T09:30:38;102210.66;;;-6.68;100.00
25238;BME280;13185;50.872;5.306;2022-12-18T09:33:03;102204.75;;;-6.62;100.00
25238;BME280;13185;50.872;5.306;2022-12-18T09:35:29;102201.47;;;-6.55;100.00
25238;BME280;13185;50.872;5.306;2022-12-18T09:37:54;102197.31;;;-6.47;100.00
25238;BME280;13185;50.872;5.306;2022-12-18T09:40:22;102187.06;;;-6.40;100.00
25238;BME280;13185;50.872;5.306;2022-12-18T09:42:57;102191.56;;;-6.34;100.00
25238;BME280;13185;50.872;5.306;2022-12-18T09:45:24;102186.53;;;-6.26;100.00
25238;BME280;13185;50.872;5.306;2022-12-18T09:47:50;102198.00;;;-6.20;100.00
25238;BME280;13185;50.872;5.306;2022-12-18T09:50:33;102183.44;;;-6.12;100.00
25238;BME280;13185;50.872;5.306;2022-12-18T09:53:06;102208.03;;;-6.02;100.00
25238;BME280;13185;50.872;5.306;2022-12-18T09:55:36;102197.75;;;-5.94;100.00
25238;BME280;13185;50.872;5.306;2022-12-18T10:00:36;102192.88;;;-5.79;100.00
25238;BME280;13185;50.872;5.306;2022-12-18T10:03:09;102204.41;;;-5.69;100.00
25238;BME280;13185;50.872;5.306;2022-12-18T10:11:09;102198.75;;;-5.52;100.00
25238;BME280;13185;50.872;5.306;2022-12-18T10:13:58;102188.41;;;-5.45;100.00
25238;BME280;13185;50.872;5.306;2022-12-18T10:19:40;102189.63;;;-5.30;100.00
25238;BME280;13185;50.872;5.306;2022-12-18T10:27:25;102163.09;;;-5.04;100.00
25238;BME280;13185;50.872;5.306;2022-12-18T10:29:52;102164.16;;;-4.96;100.00
25238;BME280;13185;50.872;5.306;2022-12-18T10:32:29;102154.72;;;-4.88;100.00
25238;BME280;13185;50.872;5.306;2022-12-18T10:34:56;102142.59;;;-4.81;100.00
25238;BME280;13185;50.872;5.306;2022-12-18T10:37:25;102139.28;;;-4.73;100.00
25238;BME280;13185;50.872;5.306;2022-12-18T10:40:12;102138.50;;;-4.69;100.00
25238;BME280;13185;50.872;5.306;2022-12-18T10:42:38;102133.31;;;-4.66;100.00
25238;BME280;13185;50.872;5.306;2022-12-18T10:45:18;102128.13;;;-4.61;100.00
25238;BME280;13185;50.872;5.306;2022-12-18T10:47:48;102122.16;;;-4.55;100.00
25238;BME280;13185;50.872;5.306;2022-12-18T10:50:34;102107.41;;;-4.49;100.00
25238;BME280;13185;50.872;5.306;2022-12-18T10:53:01;102098.75;;;-4.45;100.00
25238;BME280;13185;50.872;5.306;2022-12-18T10:55:35;102097.94;;;-4.41;100.00
25238;BME280;13185;50.872;5.306;2022-12-18T10:58:30;102091.94;;;-4.35;100.00
25238;BME280;13185;50.872;5.306;2022-12-18T11:03:44;102085.91;;;-4.28;100.00
25238;BME280;13185;50.872;5.306;2022-12-18T11:08:39;102086.06;;;-4.19;100.00
25238;BME280;13185;50.872;5.306;2022-12-18T11:11:17;102074.81;;;-4.13;100.00
25238;BME280;13185;50.872;5.306;2022-12-18T11:13:54;102074.03;;;-4.06;100.00
25238;BME280;13185;50.872;5.306;2022-12-18T11:16:23;102067.13;;;-3.99;100.00
25238;BME280;13185;50.872;5.306;2022-12-18T11:18:49;102075.97;;;-3.93;100.00
25238;BME280;13185;50.872;5.306;2022-12-18T11:21:14;102079.59;;;-3.85;100.00
25238;BME280;13185;50.872;5.306;2022-12-18T11:23:49;102073.53;;;-3.78;100.00
25238;BME280;13185;50.872;5.306;2022-12-18T11:26:15;102073.63;;;-3.71;100.00
25238;BME280;13185;50.872;5.306;2022-12-18T11:28:52;102071.94;;;-3.65;100.00
25238;BME280;13185;50.872;5.306;2022-12-18T11:31:32;102060.66;;;-3.61;100.00
25238;BME280;13185;50.872;5.306;2022-12-18T11:33:59;102064.25;;;-3.54;100.00
25238;BME280;13185;50.872;5.306;2022-12-18T11:36:31;102059.94;;;-3.46;100.00
25238;BME280;13185;50.872;5.306;2022-12-18T11:38:59;102061.75;;;-3.42;100.00
25238;BME280;13185;50.872;5.306;2022-12-18T11:41:36;102068.88;;;-3.32;100.00
25238;BME280;13185;50.872;5.306;2022-12-18T11:44:29;102068.06;;;-3.26;100.00
25238;BME280;13185;50.872;5.306;2022-12-18T11:50:01;102050.69;;;-3.13;100.00
25238;BME280;13185;50.872;5.306;2022-12-18T11:52:38;102042.00;;;-3.09;100.00
25238;BME280;13185;50.872;5.306;2022-12-18T11:55:12;102042.03;;;-3.05;100.00
25238;BME280;13185;50.872;5.306;2022-12-18T12:00:27;102032.50;;;-2.95;100.00
25238;BME280;13185;50.872;5.306;2022-12-18T12:03:21;102023.78;;;-2.93;100.00
25238;BME280;13185;50.872;5.306;2022-12-18T12:06:04;102032.56;;;-2.89;100.00
25238;BME280;13185;50.872;5.306;2022-12-18T12:08:52;102026.47;;;-2.88;100.00
25238;BME280;13185;50.872;5.306;2022-12-18T12:11:29;102023.84;;;-2.85;100.00
25238;BME280;13185;50.872;5.306;2022-12-18T12:14:29;102028.28;;;-2.78;100.00
25238;BME280;13185;50.872;5.306;2022-12-18T12:17:12;102026.59;;;-2.71;100.00
25238;BME280;13185;50.872;5.306;2022-12-18T12:20:17;102032.75;;;-2.66;100.00
25238;BME280;13185;50.872;5.306;2022-12-18T12:22:58;102017.06;;;-2.58;100.00
25238;BME280;13185;50.872;5.306;2022-12-18T12:25:51;102012.72;;;-2.50;100.00
25238;BME280;13185;50.872;5.306;2022-12-18T12:28:34;101997.91;;;-2.47;100.00
25238;BME280;13185;50.872;5.306;2022-12-18T12:31:11;101985.66;;;-2.45;100.00
25238;BME280;13185;50.872;5.306;2022-12-18T12:36:52;101979.56;;;-2.35;100.00
25238;BME280;13185;50.872;5.306;2022-12-18T12:39:28;101978.72;;;-2.32;100.00
25238;BME280;13185;50.872;5.306;2022-12-18T12:41:56;101973.50;;;-2.26;100.00
25238;BME280;13185;50.872;5.306;2022-12-18T12:44:48;101969.13;;;-2.21;100.00
25238;BME280;13185;50.872;5.306;2022-12-18T12:47:23;101974.44;;;-2.16;100.00
25238;BME280;13185;50.872;5.306;2022-12-18T12:49:52;101963.91;;;-2.16;100.00
25238;BME280;13185;50.872;5.306;2022-12-18T12:52:35;101969.19;;;-2.10;100.00
25238;BME280;13185;50.872;5.306;2022-12-18T12:55:07;101961.34;;;-2.06;100.00
25238;BME280;13185;50.872;5.306;2022-12-18T12:57:40;101955.22;;;-2.01;100.00
25238;BME280;13185;50.872;5.306;2022-12-18T13:00:11;101952.63;;;-1.97;100.00
25238;BME280;13185;50.872;5.306;2022-12-18T13:02:44;101957.88;;;-1.91;100.00
25238;BME280;13185;50.872;5.306;2022-12-18T13:05:38;101953.53;;;-1.86;100.00
25238;BME280;13185;50.872;5.306;2022-12-18T13:08:07;101957.94;;;-1.80;100.00
25238;BME280;13185;50.872;5.306;2022-12-18T13:10:39;101938.63;;;-1.78;100.00
25238;BME280;13185;50.872;5.306;2022-12-18T13:13:08;101943.91;;;-1.78;100.00
25238;BME280;13185;50.872;5.306;2022-12-18T13:23:28;101938.66;;;-1.70;100.00
25238;BME280;13185;50.872;5.306;2022-12-18T13:26:00;101935.19;;;-1.66;100.00
25238;BME280;13185;50.872;5.306;2022-12-18T13:31:10;101935.19;;;-1.60;100.00
25238;BME280;13185;50.872;5.306;2022-12-18T13:33:38;101941.34;;;-1.53;100.00
25238;BME280;13185;50.872;5.306;2022-12-18T13:38:44;101948.41;;;-1.44;100.00
25238;BME280;13185;50.872;5.306;2022-12-18T13:43:47;101945.75;;;-1.43;100.00
25238;BME280;13185;50.872;5.306;2022-12-18T13:46:30;101946.63;;;-1.42;100.00
25238;BME280;13185;50.872;5.306;2022-12-18T13:51:43;101934.34;;;-1.36;100.00
25238;BME280;13185;50.872;5.306;2022-12-18T13:54:19;101938.75;;;-1.33;100.00
25238;BME280;13185;50.872;5.306;2022-12-18T13:56:48;101940.50;;;-1.32;100.00
25238;BME280;13185;50.872;5.306;2022-12-18T13:59:25;101933.50;;;-1.35;100.00
25238;BME280;13185;50.872;5.306;2022-12-18T14:01:54;101928.22;;;-1.36;100.00
25238;BME280;13185;50.872;5.306;2022-12-18T14:04:22;101928.22;;;-1.38;100.00
25238;BME280;13185;50.872;5.306;2022-12-18T14:06:52;101935.22;;;-1.38;100.00
25238;BME280;13185;50.872;5.306;2022-12-18T14:09:24;101931.72;;;-1.39;100.00
25238;BME280;13185;50.872;5.306;2022-12-18T14:11:51;101931.72;;;-1.37;100.00
25238;BME280;13185;50.872;5.306;2022-12-18T14:14:18;101925.56;;;-1.38;100.00
25238;BME280;13185;50.872;5.306;2022-12-18T14:16:46;101923.81;;;-1.39;100.00
25238;BME280;13185;50.872;5.306;2022-12-18T14:19:16;101921.19;;;-1.40;100.00
25238;BME280;13185;50.872;5.306;2022-12-18T14:21:47;101917.69;;;-1.39;100.00
25238;BME280;13185;50.872;5.306;2022-12-18T14:24:17;101918.59;;;-1.34;99.96
25238;BME280;13185;50.872;5.306;2022-12-18T14:26:43;101921.22;;;-1.28;98.73
25238;BME280;13185;50.872;5.306;2022-12-18T14:32:12;101939.66;;;-1.21;98.00
25238;BME280;13185;50.872;5.306;2022-12-18T14:34:41;101929.97;;;-1.17;96.43
25238;BME280;13185;50.872;5.306;2022-12-18T14:37:10;101941.41;;;-1.13;95.59
25238;BME280;13185;50.872;5.306;2022-12-18T14:39:36;101944.91;;;-1.10;94.79